createdAt,value
2022-08-12T00:00:35.784Z,3.38
2022-08-12T00:03:21.747Z,3.40
2022-08-12T00:06:10.871Z,3.60
2022-08-12T00:08:57.353Z,3.58
2022-08-12T00:11:44.276Z,3.35
2022-08-12T00:14:34.718Z,3.20
2022-08-12T00:17:22.835Z,3.00
2022-08-12T00:20:09.685Z,3.50
2022-08-12T00:22:59.009Z,3.55
2022-08-12T00:26:22.975Z,3.00
2022-08-12T00:29:04.702Z,3.78
2022-08-12T00:31:50.149Z,3.22
2022-08-12T00:34:36.209Z,3.15
2022-08-12T00:37:22.291Z,3.38
2022-08-12T00:40:11.993Z,3.35
2022-08-12T00:42:42.721Z,3.63
2022-08-12T00:45:10.695Z,4.25
2022-08-12T00:47:40.449Z,3.50
2022-08-12T00:50:09.798Z,3.38
2022-08-12T00:52:36.594Z,3.40
2022-08-12T00:55:05.413Z,3.45
2022-08-12T00:57:36.866Z,3.50
2022-08-12T01:00:17.247Z,3.60
2022-08-12T01:02:52.124Z,3.65
2022-08-12T01:05:39.691Z,3.42
2022-08-12T01:08:26.214Z,3.28
2022-08-12T01:11:14.280Z,3.42
2022-08-12T01:13:49.394Z,3.60
2022-08-12T01:16:22.577Z,3.42
2022-08-12T01:18:54.978Z,4.10
2022-08-12T01:21:27.827Z,2.90
2022-08-12T01:24:30.391Z,3.55
2022-08-12T01:26:59.590Z,3.20
2022-08-12T01:29:32.832Z,3.10
2022-08-12T01:32:05.137Z,3.40
2022-08-12T01:34:39.191Z,3.42
2022-08-12T01:37:08.347Z,3.00
2022-08-12T01:40:36.991Z,3.08
2022-08-12T01:42:34.038Z,2.97
2022-08-12T01:45:02.496Z,3.17
2022-08-12T01:47:59.453Z,3.38
2022-08-12T01:50:54.856Z,3.10
2022-08-12T01:53:50.808Z,3.33
2022-08-12T01:56:21.956Z,3.25
2022-08-12T01:59:14.895Z,3.10
2022-08-12T02:01:46.227Z,3.42
2022-08-12T02:04:46.753Z,3.70
2022-08-12T02:07:41.392Z,3.65
2022-08-12T02:10:50.802Z,3.30
2022-08-12T02:13:48.886Z,3.35
2022-08-12T02:16:38.014Z,2.83
2022-08-12T02:19:40.550Z,3.40
2022-08-12T02:22:28.260Z,3.38
2022-08-12T02:25:18.052Z,3.20
2022-08-12T02:27:53.894Z,3.33
2022-08-12T02:30:24.949Z,3.25
2022-08-12T02:32:54.732Z,3.13
2022-08-12T02:35:35.542Z,3.17
2022-08-12T02:38:05.863Z,3.25
2022-08-12T02:40:37.950Z,3.80
2022-08-12T02:43:12.182Z,3.20
2022-08-12T02:46:00.294Z,3.47
2022-08-12T02:48:54.570Z,3.10
2022-08-12T02:51:34.964Z,2.72
2022-08-12T02:54:06.204Z,3.42
2022-08-12T02:56:50.534Z,2.78
2022-08-12T02:59:26.389Z,3.20
2022-08-12T03:01:58.069Z,2.97
2022-08-12T03:04:26.590Z,3.30
2022-08-12T03:06:58.252Z,3.13
2022-08-12T03:09:30.709Z,3.00
2022-08-12T03:12:07.634Z,3.38
2022-08-12T03:14:39.026Z,3.33
2022-08-12T03:17:30.491Z,2.80
2022-08-12T03:20:08.841Z,3.13
2022-08-12T03:22:41.692Z,3.40
2022-08-12T03:25:18.423Z,2.83
2022-08-12T03:27:49.872Z,2.92
2022-08-12T03:30:19.090Z,3.40
2022-08-12T03:32:50.799Z,3.55
2022-08-12T03:35:41.119Z,3.08
2022-08-12T03:38:12.422Z,3.35
2022-08-12T03:41:22.410Z,3.10
2022-08-12T03:44:16.958Z,3.17
2022-08-12T03:47:07.900Z,3.25
2022-08-12T03:49:54.451Z,3.00
2022-08-12T03:52:40.011Z,3.30
2022-08-12T03:55:25.998Z,3.38
2022-08-12T03:58:13.942Z,3.03
2022-08-12T04:00:40.854Z,3.00
2022-08-12T04:03:31.183Z,3.25
2022-08-12T04:05:57.943Z,3.50
2022-08-12T04:08:26.584Z,3.45
2022-08-12T04:11:13.433Z,3.25
2022-08-12T04:13:41.047Z,3.22
2022-08-12T04:16:14.441Z,3.00
2022-08-12T04:18:42.369Z,2.90
2022-08-12T04:21:12.231Z,3.53
2022-08-12T04:23:47.672Z,3.13
2022-08-12T04:26:15.395Z,3.30
2022-08-12T04:28:45.914Z,3.22
2022-08-12T04:31:14.171Z,3.20
2022-08-12T04:33:42.347Z,3.50
2022-08-12T04:36:11.828Z,3.10
2022-08-12T04:38:39.074Z,3.40
2022-08-12T04:41:06.477Z,3.03
2022-08-12T04:44:01.159Z,3.70
2022-08-12T04:46:23.949Z,3.42
2022-08-12T04:48:53.638Z,3.50
2022-08-12T04:51:23.109Z,3.17
2022-08-12T04:53:50.860Z,3.47
2022-08-12T04:56:17.946Z,3.25
2022-08-12T04:58:48.357Z,3.78
2022-08-12T05:01:18.434Z,3.72
2022-08-12T05:03:51.787Z,3.58
2022-08-12T05:06:26.668Z,3.85
2022-08-12T05:08:55.842Z,3.67
2022-08-12T05:11:24.747Z,3.53
2022-08-12T05:13:57.802Z,3.17
2022-08-12T05:16:25.973Z,3.50
2022-08-12T05:18:58.691Z,3.40
2022-08-12T05:21:26.460Z,3.50
2022-08-12T05:23:55.643Z,3.65
2022-08-12T05:26:22.767Z,3.47
2022-08-12T05:28:54.076Z,3.67
2022-08-12T05:31:42.518Z,3.85
2022-08-12T05:34:14.575Z,3.28
2022-08-12T05:36:43.977Z,3.50
2022-08-12T05:39:11.221Z,3.92
2022-08-12T05:41:38.128Z,3.53
2022-08-12T05:44:11.625Z,3.55
2022-08-12T05:46:38.441Z,3.80
2022-08-12T05:49:06.347Z,3.50
2022-08-12T05:51:40.158Z,3.63
2022-08-12T05:54:11.450Z,3.45
2022-08-12T05:56:41.493Z,3.78
2022-08-12T05:59:11.067Z,3.53
2022-08-12T06:02:10.973Z,3.25
2022-08-12T06:06:56.771Z,3.38
2022-08-12T06:09:25.600Z,3.60
2022-08-12T06:12:04.541Z,3.77
2022-08-12T06:14:36.691Z,3.53
2022-08-12T06:17:05.093Z,3.80
2022-08-12T06:20:25.729Z,3.63
2022-08-12T06:22:19.160Z,3.80
2022-08-12T06:24:46.546Z,3.60
2022-08-12T06:27:17.601Z,3.60
2022-08-12T06:30:10.033Z,3.60
2022-08-12T06:32:33.325Z,3.67
2022-08-12T06:35:25.702Z,3.40
2022-08-12T06:37:56.741Z,3.58
2022-08-12T06:40:43.883Z,3.60
2022-08-12T06:43:10.652Z,3.85
2022-08-12T06:45:45.652Z,3.90
2022-08-12T06:48:13.329Z,3.47
2022-08-12T06:50:42.555Z,3.70
2022-08-12T06:53:11.355Z,3.47
2022-08-12T06:55:57.981Z,3.50
2022-08-12T06:58:26.605Z,3.10
2022-08-12T07:00:57.844Z,3.60
2022-08-12T07:03:29.204Z,3.45
2022-08-12T07:05:59.781Z,3.15
2022-08-12T07:08:32.691Z,3.75
2022-08-12T07:11:05.443Z,3.53
2022-08-12T07:14:11.242Z,3.33
2022-08-12T07:16:51.610Z,3.25
2022-08-12T07:19:19.084Z,2.97
2022-08-12T07:22:00.192Z,3.13
2022-08-12T07:24:36.871Z,2.80
2022-08-12T07:27:06.166Z,2.95
2022-08-12T07:30:03.787Z,2.88
2022-08-12T07:32:24.630Z,3.85
2022-08-12T07:34:54.564Z,2.88
2022-08-12T07:37:23.639Z,3.00
2022-08-12T07:39:59.691Z,2.13
2022-08-12T07:42:29.352Z,2.75
2022-08-12T07:44:56.384Z,2.42
2022-08-12T07:47:23.875Z,2.55
2022-08-12T07:50:03.704Z,3.00
2022-08-12T07:52:39.707Z,3.08
2022-08-12T07:55:10.443Z,2.92
2022-08-12T07:57:54.130Z,2.67
2022-08-12T08:00:21.433Z,2.75
2022-08-12T08:02:49.341Z,2.45
2022-08-12T08:05:19.480Z,2.58
2022-08-12T08:07:46.810Z,2.95
2022-08-12T08:10:13.870Z,2.50
2022-08-12T08:12:58.196Z,2.60
2022-08-12T08:16:01.102Z,2.67
2022-08-12T08:18:26.678Z,2.67
2022-08-12T08:20:56.961Z,2.60
2022-08-12T08:23:46.373Z,2.75
2022-08-12T08:26:15.577Z,2.30
2022-08-12T08:28:45.389Z,2.40
2022-08-12T08:31:14.222Z,2.60
2022-08-12T08:34:04.832Z,2.78
2022-08-12T08:36:28.995Z,2.60
2022-08-12T08:38:58.234Z,2.40
2022-08-12T08:44:39.584Z,2.53
2022-08-12T08:47:11.671Z,2.40
2022-08-12T08:49:39.363Z,2.70
2022-08-12T08:52:08.631Z,2.58
2022-08-12T08:57:08.449Z,2.45
2022-08-12T08:59:35.829Z,2.60
2022-08-12T09:02:02.763Z,2.55
2022-08-12T09:05:13.645Z,2.05
2022-08-12T09:07:51.821Z,2.55
2022-08-12T09:10:09.168Z,2.50
2022-08-12T09:13:02.237Z,2.60
2022-08-12T09:15:36.205Z,2.53
2022-08-12T09:20:54.062Z,1.90
2022-08-12T09:23:59.614Z,1.90
2022-08-12T09:26:10.325Z,2.00
2022-08-12T09:28:38.006Z,2.25
2022-08-12T09:32:06.887Z,2.15
2022-08-12T09:34:26.030Z,2.00
2022-08-12T09:37:00.451Z,1.90
2022-08-12T09:40:05.679Z,2.00
2022-08-12T09:42:44.077Z,1.98
2022-08-12T09:46:21.185Z,1.70
2022-08-12T09:48:22.072Z,2.00
2022-08-12T09:50:51.910Z,1.85
2022-08-12T09:53:36.117Z,1.95
2022-08-12T09:56:58.314Z,1.95
2022-08-12T09:58:58.113Z,1.63
2022-08-12T10:01:35.042Z,1.85
2022-08-12T10:04:15.516Z,2.00
2022-08-12T10:06:53.886Z,1.70
2022-08-12T10:09:22.954Z,1.85
2022-08-12T10:12:12.015Z,1.88
2022-08-12T10:14:39.936Z,1.98
2022-08-12T10:17:21.580Z,1.95
2022-08-12T10:19:52.085Z,1.50
2022-08-12T10:22:36.731Z,2.20
2022-08-12T10:26:18.494Z,1.88
2022-08-12T10:28:34.640Z,2.22
2022-08-12T10:31:04.827Z,1.90
2022-08-12T10:33:54.059Z,1.70
2022-08-12T10:36:40.246Z,1.80
2022-08-12T10:40:01.978Z,1.85
2022-08-12T10:42:16.857Z,1.90
2022-08-12T10:45:00.837Z,1.88
2022-08-12T10:48:14.977Z,1.67
2022-08-12T10:50:28.504Z,1.92
2022-08-12T10:53:09.480Z,1.73
2022-08-12T10:55:36.456Z,1.67
2022-08-12T10:58:14.318Z,1.77
2022-08-12T11:01:26.201Z,1.83
2022-08-12T11:04:24.519Z,1.90
2022-08-12T11:07:06.192Z,1.73
2022-08-12T11:09:14.075Z,2.10
2022-08-12T11:12:35.771Z,2.00
2022-08-12T11:14:49.558Z,2.33
2022-08-12T11:17:42.743Z,1.80
2022-08-12T11:20:07.484Z,2.00
2022-08-12T11:22:37.562Z,1.85
2022-08-12T11:25:12.812Z,1.90
2022-08-12T11:27:42.456Z,1.77
2022-08-12T11:30:30.523Z,1.60
2022-08-12T11:32:57.608Z,1.73
2022-08-12T11:35:24.564Z,1.98
2022-08-12T11:37:59.167Z,1.65
2022-08-12T11:40:26.528Z,1.90
2022-08-12T11:43:01.864Z,1.73
2022-08-12T11:45:42.697Z,1.80
2022-08-12T11:48:15.200Z,2.00
2022-08-12T11:50:45.788Z,1.83
2022-08-12T11:53:56.948Z,2.42
2022-08-12T11:55:59.384Z,2.50
2022-08-12T11:59:02.907Z,2.28
2022-08-12T12:01:58.986Z,1.70
2022-08-12T12:04:01.946Z,2.00
2022-08-12T12:08:55.540Z,1.80
2022-08-12T12:11:27.371Z,1.77
2022-08-12T12:14:14.115Z,2.08
2022-08-12T12:16:49.984Z,1.85
2022-08-12T12:19:17.767Z,1.58
2022-08-12T12:21:47.788Z,2.13
2022-08-12T12:24:21.449Z,1.83
2022-08-12T12:27:00.494Z,1.85
2022-08-12T12:30:18.482Z,1.80
2022-08-12T12:32:29.056Z,1.80
2022-08-12T12:35:14.151Z,1.65
2022-08-12T12:38:05.622Z,2.10
2022-08-12T12:40:43.771Z,1.65
2022-08-12T12:43:14.045Z,1.75
2022-08-12T12:45:44.285Z,1.60
2022-08-12T12:48:16.064Z,1.77
2022-08-12T12:50:51.262Z,1.92
2022-08-12T12:54:06.136Z,1.92
2022-08-12T12:56:34.135Z,1.80
2022-08-12T12:59:03.674Z,1.88
2022-08-12T13:01:31.851Z,1.50
2022-08-12T13:04:02.482Z,4.03
2022-08-12T13:06:32.472Z,1.80
2022-08-12T13:09:04.259Z,2.00
2022-08-12T13:11:41.519Z,1.60
2022-08-12T13:14:13.071Z,1.65
2022-08-12T13:16:56.396Z,1.88
2022-08-12T13:19:25.460Z,1.90
2022-08-12T13:22:23.861Z,1.73
2022-08-12T13:24:55.617Z,1.55
2022-08-12T13:27:35.411Z,2.70
2022-08-12T13:30:06.738Z,1.77
2022-08-12T13:32:34.260Z,1.98
2022-08-12T13:35:04.200Z,1.92
2022-08-12T13:37:54.840Z,2.00
2022-08-12T13:40:26.683Z,1.80
2022-08-12T13:42:58.167Z,2.08
2022-08-12T13:45:30.864Z,1.55
2022-08-12T13:48:04.864Z,1.70
2022-08-12T13:50:38.966Z,1.80
2022-08-12T13:53:23.855Z,1.80
2022-08-12T13:56:01.303Z,1.77
2022-08-12T13:58:30.694Z,1.70
2022-08-12T14:01:05.770Z,1.50
2022-08-12T14:03:50.432Z,1.95
2022-08-12T14:06:19.663Z,1.50
2022-08-12T14:08:49.928Z,1.80
2022-08-12T14:11:25.348Z,1.60
2022-08-12T14:14:06.042Z,1.58
2022-08-12T14:16:49.296Z,1.70
2022-08-12T14:19:22.590Z,1.92
2022-08-12T14:22:01.427Z,2.20
2022-08-12T14:24:35.432Z,1.90
2022-08-12T14:27:09.230Z,2.00
2022-08-12T14:30:04.846Z,2.00
2022-08-12T14:32:28.862Z,1.85
2022-08-12T14:34:56.654Z,1.90
2022-08-12T14:37:56.406Z,1.60
2022-08-12T14:40:18.314Z,1.80
2022-08-12T14:42:46.978Z,2.03
2022-08-12T14:45:14.349Z,2.13
2022-08-12T14:47:51.284Z,1.83
2022-08-12T14:50:41.198Z,1.80
2022-08-12T14:59:20.336Z,1.90
2022-08-12T15:01:52.440Z,1.85
2022-08-12T15:04:28.617Z,1.90
2022-08-12T15:06:58.270Z,1.80
2022-08-12T15:09:31.402Z,1.77
2022-08-12T15:12:03.558Z,2.00
2022-08-12T15:14:31.955Z,1.58
2022-08-12T15:17:00.600Z,1.83
2022-08-12T15:20:11.933Z,1.58
2022-08-12T15:22:35.800Z,1.80
2022-08-12T15:25:08.959Z,2.05
2022-08-12T15:28:20.611Z,2.13
2022-08-12T15:30:31.819Z,1.90
2022-08-12T15:32:59.201Z,1.77
2022-08-12T15:35:38.154Z,1.80
2022-08-12T15:38:15.894Z,1.75
2022-08-12T15:40:49.695Z,1.98
2022-08-12T15:43:51.658Z,1.60
2022-08-12T15:46:15.511Z,1.80
2022-08-12T15:48:47.754Z,1.73
2022-08-12T15:51:58.889Z,1.52
2022-08-12T15:54:35.300Z,1.75
2022-08-12T15:57:10.874Z,1.77
2022-08-12T16:00:00.329Z,1.90
2022-08-12T16:02:41.077Z,1.80
2022-08-12T16:06:11.809Z,2.13
2022-08-12T16:08:13.268Z,1.50
2022-08-12T16:10:46.942Z,1.92
2022-08-12T16:13:18.095Z,1.67
2022-08-12T16:16:02.659Z,2.03
2022-08-12T16:18:31.593Z,1.77
2022-08-12T16:21:01.274Z,1.73
2022-08-12T16:23:51.694Z,1.60
2022-08-12T16:26:20.289Z,1.63
2022-08-12T16:31:24.005Z,1.95
2022-08-12T16:33:59.789Z,1.60
2022-08-12T16:36:31.599Z,1.75
2022-08-12T16:39:01.510Z,1.70
2022-08-12T16:41:39.554Z,1.70
2022-08-12T16:44:08.348Z,1.73
2022-08-12T16:46:36.202Z,2.22
2022-08-12T16:49:12.897Z,1.67
2022-08-12T16:51:46.579Z,1.85
2022-08-12T16:54:16.435Z,1.70
2022-08-12T16:56:54.751Z,1.90
2022-08-12T16:59:53.458Z,1.60
2022-08-12T17:02:34.097Z,1.65
2022-08-12T17:05:04.124Z,1.55
2022-08-12T17:07:36.749Z,2.28
2022-08-12T17:10:06.778Z,2.30
2022-08-12T17:12:33.945Z,2.08
2022-08-12T17:15:21.277Z,1.77
2022-08-12T17:18:39.256Z,1.92
2022-08-12T17:20:46.667Z,1.58
2022-08-12T17:23:19.346Z,2.08
2022-08-12T17:25:52.350Z,1.67
2022-08-12T17:28:21.275Z,1.65
2022-08-12T17:30:59.526Z,1.80
2022-08-12T17:33:27.656Z,1.88
2022-08-12T17:35:58.548Z,1.65
2022-08-12T17:38:25.385Z,1.65
2022-08-12T17:40:54.414Z,1.60
2022-08-12T17:48:55.247Z,1.90
2022-08-12T17:51:25.112Z,2.00
2022-08-12T17:54:12.464Z,2.50
2022-08-12T17:56:43.645Z,2.65
2022-08-12T17:59:12.390Z,3.25
2022-08-12T18:01:45.570Z,4.28
2022-08-12T18:04:21.283Z,3.95
2022-08-12T18:06:50.406Z,3.60
2022-08-12T18:09:18.322Z,3.97
2022-08-12T18:12:08.471Z,4.35
2022-08-12T18:14:38.249Z,3.85
2022-08-12T18:17:10.043Z,3.58
2022-08-12T18:20:05.082Z,3.45
2022-08-12T18:22:30.548Z,3.38
2022-08-12T18:25:05.378Z,3.65
2022-08-12T18:27:44.311Z,3.50
2022-08-12T18:30:21.015Z,3.70
2022-08-12T18:33:03.869Z,3.78
2022-08-12T18:35:47.170Z,3.15
2022-08-12T18:38:25.009Z,3.17
2022-08-12T18:41:21.869Z,3.15
2022-08-12T18:44:02.718Z,2.97
2022-08-12T18:46:55.281Z,3.30
2022-08-12T18:49:33.508Z,3.10
2022-08-12T18:52:08.038Z,3.38
2022-08-12T18:54:54.006Z,3.40
2022-08-12T18:58:05.919Z,3.13
2022-08-12T19:00:20.965Z,3.53
2022-08-12T19:02:54.871Z,3.90
2022-08-12T19:05:24.822Z,3.47
2022-08-12T19:08:12.138Z,3.47
2022-08-12T19:10:43.097Z,4.20
2022-08-12T19:13:36.319Z,4.85
2022-08-12T19:16:10.685Z,4.47
2022-08-12T19:18:40.882Z,4.05
2022-08-12T19:21:16.635Z,4.13
2022-08-12T19:24:06.740Z,4.65
2022-08-12T19:26:35.535Z,4.68
2022-08-12T19:29:04.954Z,5.10
2022-08-12T19:31:57.633Z,4.95
2022-08-12T19:37:38.697Z,4.20
2022-08-12T19:40:32.877Z,4.80
2022-08-12T19:43:21.766Z,3.92
2022-08-12T19:45:57.212Z,3.92
2022-08-12T19:48:30.797Z,3.75
2022-08-12T19:51:09.104Z,3.92
2022-08-12T19:53:58.025Z,3.55
2022-08-12T19:56:32.318Z,3.17
2022-08-12T19:59:20.521Z,3.60
2022-08-12T20:02:02.515Z,3.47
2022-08-12T20:04:37.326Z,3.65
2022-08-12T20:07:06.161Z,3.78
2022-08-12T20:09:39.817Z,3.45
2022-08-12T20:12:18.053Z,3.83
2022-08-12T20:14:53.461Z,3.40
2022-08-12T20:17:23.609Z,3.53
2022-08-12T20:20:17.471Z,3.70
2022-08-12T20:22:41.983Z,3.78
2022-08-12T20:25:15.443Z,3.78
2022-08-12T20:28:04.711Z,3.17
2022-08-12T20:30:52.569Z,3.25
2022-08-12T20:33:50.409Z,3.60
2022-08-12T20:36:41.277Z,3.58
2022-08-12T20:39:34.324Z,3.13
2022-08-12T20:42:04.479Z,3.08
2022-08-12T20:44:37.771Z,2.95
2022-08-12T20:47:16.709Z,3.13
2022-08-12T20:49:46.557Z,3.20
2022-08-12T20:52:25.413Z,2.80
2022-08-12T20:54:57.134Z,2.80
2022-08-12T20:57:38.041Z,2.55
2022-08-12T21:00:14.184Z,2.63
2022-08-12T21:02:45.687Z,2.60
2022-08-12T21:06:12.209Z,2.15
2022-08-12T21:08:26.281Z,2.25
2022-08-12T21:10:54.507Z,2.20
2022-08-12T21:13:26.905Z,2.35
2022-08-12T21:16:00.067Z,2.10
2022-08-12T21:18:28.633Z,1.92
2022-08-12T21:20:59.022Z,2.10
2022-08-12T21:23:30.960Z,2.10
2022-08-12T21:26:06.167Z,2.03
2022-08-12T21:32:37.336Z,2.30
2022-08-12T21:34:14.638Z,2.20
2022-08-12T21:36:48.596Z,2.65
2022-08-12T21:39:26.773Z,2.28
2022-08-12T21:42:06.991Z,2.53
2022-08-12T21:45:46.608Z,2.50
2022-08-12T21:47:23.473Z,2.90
2022-08-12T21:50:04.350Z,2.40
2022-08-12T21:52:40.827Z,2.70
2022-08-12T21:55:18.836Z,3.08
2022-08-12T21:57:50.705Z,2.58
2022-08-12T22:00:23.855Z,2.92
2022-08-12T22:03:17.962Z,3.00
2022-08-12T22:06:30.800Z,2.85
2022-08-12T22:09:08.947Z,3.08
2022-08-12T22:11:57.044Z,2.83
2022-08-12T22:14:28.046Z,3.38
2022-08-12T22:17:00.772Z,2.97
2022-08-12T22:19:33.701Z,3.00
2022-08-12T22:22:04.743Z,3.35
2022-08-12T22:24:32.509Z,3.05
2022-08-12T22:27:07.988Z,3.15
2022-08-12T22:30:16.805Z,2.75
2022-08-12T22:32:50.012Z,2.72
2022-08-12T22:35:55.481Z,3.28
2022-08-12T22:38:23.823Z,3.08
2022-08-12T22:41:00.561Z,2.75
2022-08-12T22:44:00.217Z,3.08
2022-08-12T22:46:32.628Z,2.50
2022-08-12T22:48:59.401Z,2.40
2022-08-12T22:51:26.767Z,2.42
2022-08-12T22:56:31.016Z,2.28
2022-08-12T22:59:03.071Z,1.83
2022-08-12T23:02:01.003Z,2.10
2022-08-12T23:04:28.669Z,2.20
2022-08-12T23:07:05.512Z,2.00
2022-08-12T23:09:48.095Z,2.10
2022-08-12T23:12:37.413Z,1.92
2022-08-12T23:15:13.124Z,2.20
2022-08-12T23:17:43.358Z,1.88
2022-08-12T23:20:13.032Z,1.88
2022-08-12T23:22:43.818Z,1.70
2022-08-12T23:25:55.648Z,2.08
2022-08-12T23:28:37.928Z,1.50
2022-08-12T23:31:09.068Z,1.67
2022-08-12T23:34:01.595Z,1.80
2022-08-12T23:36:31.664Z,1.80
2022-08-12T23:40:13.570Z,1.63
2022-08-12T23:42:18.072Z,1.70
2022-08-12T23:44:48.541Z,1.90
2022-08-12T23:47:22.823Z,1.58
2022-08-12T23:49:57.487Z,1.50
2022-08-12T23:52:34.050Z,1.60
2022-08-12T23:55:24.223Z,1.52
2022-08-12T23:58:21.018Z,1.27
